Terminal Aerodrome Forecast
Issued by NWS

Home | Current Version | Previous Version | Text Only | Print | Product List | Glossary On
Versions: 1 2 3 4 5 6 7 8 9 10 11 12 13 14 15 16 17
000
FTUS45 KCYS 240532
TAFLAR
TAF
KLAR 240532Z 2406/2506 23014KT P6SM VCSH OVC100
     FM240800 19008KT P6SM VCSH BKN100
     FM241400 13010KT P6SM BKN050
     FM241900 12014G23KT P6SM BKN050
     FM242100 13013G20KT P6SM VCTS BKN050CB
     FM250200 12012KT P6SM OVC100=

USA.gov is the U.S. government's official web portal to all federal, state and local government web resources and services.